sensor_id;sensor_type;location;lat;lon;timestamp;pressure;altitude;pressure_sealevel;temperature;humidity
55317;BME280;41178;48.956;8.130;2023-02-26T00:00:21;99202.88;;;1.75;42.14
55317;BME280;41178;48.956;8.130;2023-02-26T00:05:23;99281.03;;;0.56;43.38
55317;BME280;41178;48.956;8.130;2023-02-26T00:10:25;99340.56;;;-0.16;44.17
55317;BME280;41178;48.956;8.130;2023-02-26T00:15:27;99378.06;;;-0.81;44.90
55317;BME280;41178;48.956;8.130;2023-02-26T00:20:29;99323.91;;;-0.38;44.03
55317;BME280;41178;48.956;8.130;2023-02-26T00:25:31;99349.31;;;-0.93;44.86
55317;BME280;41178;48.956;8.130;2023-02-26T00:30:33;99353.72;;;-1.05;45.15
55317;BME280;41178;48.956;8.130;2023-02-26T00:35:35;99369.81;;;-1.21;45.60
55317;BME280;41178;48.956;8.130;2023-02-26T00:40:44;99288.69;;;-0.69;44.90
55317;BME280;41178;48.956;8.130;2023-02-26T00:51:31;99216.03;;;-0.06;44.46
55317;BME280;41178;48.956;8.130;2023-02-26T00:56:38;99236.03;;;0.07;43.60
55317;BME280;41178;48.956;8.130;2023-02-26T01:01:39;99220.81;;;0.31;43.02
55317;BME280;41178;48.956;8.130;2023-02-26T01:06:45;99347.75;;;-1.07;44.90
55317;BME280;41178;48.956;8.130;2023-02-26T01:11:48;99277.41;;;-0.37;44.18
55317;BME280;41178;48.956;8.130;2023-02-26T01:22:12;99187.19;;;0.45;43.58
55317;BME280;41178;48.956;8.130;2023-02-26T01:27:16;99296.91;;;-0.40;43.84
55317;BME280;41178;48.956;8.130;2023-02-26T01:32:37;99302.88;;;-0.61;43.59
55317;BME280;41178;48.956;8.130;2023-02-26T01:42:47;99191.31;;;0.88;42.25
55317;BME280;41178;48.956;8.130;2023-02-26T01:47:57;99209.66;;;0.99;41.45
55317;BME280;41178;48.956;8.130;2023-02-26T01:58:21;99314.13;;;0.27;41.96
55317;BME280;41178;48.956;8.130;2023-02-26T02:03:27;99199.16;;;1.68;40.88
55317;BME280;41178;48.956;8.130;2023-02-26T02:08:32;99225.50;;;1.77;40.79
55317;BME280;41178;48.956;8.130;2023-02-26T02:14:11;99362.22;;;-0.24;42.93
55317;BME280;41178;48.956;8.130;2023-02-26T02:36:15;99292.25;;;1.29;41.08
55317;BME280;41178;48.956;8.130;2023-02-26T02:41:29;99327.16;;;0.81;42.13
55317;BME280;41178;48.956;8.130;2023-02-26T02:46:36;99267.41;;;1.22;42.01
55317;BME280;41178;48.956;8.130;2023-02-26T02:52:00;99321.66;;;0.63;42.63
55317;BME280;41178;48.956;8.130;2023-02-26T02:57:34;99335.44;;;0.66;41.80
55317;BME280;41178;48.956;8.130;2023-02-26T03:02:50;99335.81;;;0.41;41.77
55317;BME280;41178;48.956;8.130;2023-02-26T03:08:01;99295.81;;;0.68;42.24
55317;BME280;41178;48.956;8.130;2023-02-26T03:13:04;99323.72;;;0.49;42.70
55317;BME280;41178;48.956;8.130;2023-02-26T03:29:21;99375.19;;;0.42;42.78
55317;BME280;41178;48.956;8.130;2023-02-26T03:34:40;99350.34;;;0.56;42.23
55317;BME280;41178;48.956;8.130;2023-02-26T03:39:48;99329.72;;;0.61;42.53
55317;BME280;41178;48.956;8.130;2023-02-26T03:44:55;99392.81;;;0.09;43.26
55317;BME280;41178;48.956;8.130;2023-02-26T04:00:08;99518.44;;;-2.15;47.35
55317;BME280;41178;48.956;8.130;2023-02-26T04:05:17;99487.63;;;-2.00;47.38
55317;BME280;41178;48.956;8.130;2023-02-26T04:10:33;99465.19;;;-2.28;48.44
55317;BME280;41178;48.956;8.130;2023-02-26T04:15:37;99361.78;;;-1.53;47.86
55317;BME280;41178;48.956;8.130;2023-02-26T04:20:38;99438.91;;;-2.16;48.50
55317;BME280;41178;48.956;8.130;2023-02-26T04:25:40;99408.44;;;-2.17;48.29
55317;BME280;41178;48.956;8.130;2023-02-26T04:30:42;99330.47;;;-1.79;48.63
55317;BME280;41178;48.956;8.130;2023-02-26T04:35:44;99271.97;;;-1.23;47.83
55317;BME280;41178;48.956;8.130;2023-02-26T04:40:46;99451.84;;;-2.75;49.43
55317;BME280;41178;48.956;8.130;2023-02-26T04:45:48;99358.84;;;-1.84;48.10
55317;BME280;41178;48.956;8.130;2023-02-26T04:50:50;99238.88;;;-1.03;47.91
55317;BME280;41178;48.956;8.130;2023-02-26T04:55:51;99391.69;;;-2.03;48.34
55317;BME280;41178;48.956;8.130;2023-02-26T05:00:53;99281.97;;;-1.40;48.46
55317;BME280;41178;48.956;8.130;2023-02-26T05:05:56;99422.66;;;-2.45;49.46
55317;BME280;41178;48.956;8.130;2023-02-26T05:10:57;99352.91;;;-1.75;47.82
55317;BME280;41178;48.956;8.130;2023-02-26T05:15:59;99236.44;;;-0.84;47.49
55317;BME280;41178;48.956;8.130;2023-02-26T05:21:02;99357.22;;;-1.74;48.78
55317;BME280;41178;48.956;8.130;2023-02-26T05:26:04;99279.84;;;-1.23;48.42
55317;BME280;41178;48.956;8.130;2023-02-26T05:31:06;99284.84;;;-1.20;48.21
55317;BME280;41178;48.956;8.130;2023-02-26T05:36:08;99215.00;;;-0.35;46.61
55317;BME280;41178;48.956;8.130;2023-02-26T05:41:10;99408.34;;;-1.80;48.08
55317;BME280;41178;48.956;8.130;2023-02-26T05:46:12;99262.44;;;-0.81;47.77
55317;BME280;41178;48.956;8.130;2023-02-26T05:51:14;99356.66;;;-1.66;48.68
55317;BME280;41178;48.956;8.130;2023-02-26T05:56:16;99494.59;;;-2.49;48.89
55317;BME280;41178;48.956;8.130;2023-02-26T06:01:18;99423.75;;;-1.99;49.29
55317;BME280;41178;48.956;8.130;2023-02-26T06:06:20;99471.94;;;-2.50;49.99
55317;BME280;41178;48.956;8.130;2023-02-26T06:11:22;99310.97;;;-1.64;49.46
55317;BME280;41178;48.956;8.130;2023-02-26T06:16:24;99315.28;;;-1.29;48.25
55317;BME280;41178;48.956;8.130;2023-02-26T06:21:27;99435.69;;;-2.19;50.14
55317;BME280;41178;48.956;8.130;2023-02-26T06:26:29;99372.72;;;-1.71;49.39
55317;BME280;41178;48.956;8.130;2023-02-26T06:31:30;99390.00;;;-2.04;50.64
55317;BME280;41178;48.956;8.130;2023-02-26T06:36:32;99364.16;;;-1.62;49.08
55317;BME280;41178;48.956;8.130;2023-02-26T06:41:34;99418.06;;;-1.93;50.14
55317;BME280;41178;48.956;8.130;2023-02-26T06:46:36;99427.72;;;-1.94;50.69
55317;BME280;41178;48.956;8.130;2023-02-26T06:51:38;99321.50;;;-1.19;49.81
55317;BME280;41178;48.956;8.130;2023-02-26T06:56:40;99398.75;;;-1.92;51.18
55317;BME280;41178;48.956;8.130;2023-02-26T07:01:42;99313.97;;;-1.01;49.48
55317;BME280;41178;48.956;8.130;2023-02-26T07:06:44;99414.81;;;-1.72;50.33
55317;BME280;41178;48.956;8.130;2023-02-26T07:11:46;99297.13;;;-0.87;50.06
55317;BME280;41178;48.956;8.130;2023-02-26T07:16:47;99575.47;;;-2.83;51.77
55317;BME280;41178;48.956;8.130;2023-02-26T07:21:49;99338.91;;;-1.06;49.82
55317;BME280;41178;48.956;8.130;2023-02-26T07:26:51;99379.50;;;-1.22;49.62
55317;BME280;41178;48.956;8.130;2023-02-26T07:31:53;99375.81;;;-1.19;50.32
55317;BME280;41178;48.956;8.130;2023-02-26T07:36:56;99354.06;;;-1.10;50.02
55317;BME280;41178;48.956;8.130;2023-02-26T07:41:59;99356.00;;;-1.01;50.27
55317;BME280;41178;48.956;8.130;2023-02-26T07:47:01;99423.03;;;-1.30;50.03
55317;BME280;41178;48.956;8.130;2023-02-26T07:52:03;99378.91;;;-1.03;49.77
55317;BME280;41178;48.956;8.130;2023-02-26T07:57:06;99400.88;;;-1.15;50.08
55317;BME280;41178;48.956;8.130;2023-02-26T08:02:09;99518.47;;;-1.67;50.33
55317;BME280;41178;48.956;8.130;2023-02-26T08:07:11;99499.09;;;-1.77;50.36
55317;BME280;41178;48.956;8.130;2023-02-26T08:12:13;99365.41;;;-0.75;49.74
55317;BME280;41178;48.956;8.130;2023-02-26T08:17:15;99277.97;;;0.50;48.26
55317;BME280;41178;48.956;8.130;2023-02-26T08:22:17;99327.22;;;-0.03;49.12
55317;BME280;41178;48.956;8.130;2023-02-26T08:27:19;99306.72;;;0.33;48.44
55317;BME280;41178;48.956;8.130;2023-02-26T08:32:20;99415.56;;;-0.33;48.80
55317;BME280;41178;48.956;8.130;2023-02-26T08:37:23;99303.47;;;0.81;47.94
55317;BME280;41178;48.956;8.130;2023-02-26T08:42:25;99423.03;;;-0.06;48.44
55317;BME280;41178;48.956;8.130;2023-02-26T08:47:27;99529.75;;;-0.71;48.83
55317;BME280;41178;48.956;8.130;2023-02-26T08:52:29;99693.13;;;-2.14;49.63
55317;BME280;41178;48.956;8.130;2023-02-26T08:57:31;99398.16;;;-0.13;49.16
55317;BME280;41178;48.956;8.130;2023-02-26T09:02:34;99569.44;;;-1.58;51.17
55317;BME280;41178;48.956;8.130;2023-02-26T09:07:37;99597.84;;;-1.39;50.16
55317;BME280;41178;48.956;8.130;2023-02-26T09:12:39;99353.69;;;0.58;48.13
55317;BME280;41178;48.956;8.130;2023-02-26T09:17:41;99557.53;;;-0.56;47.48
55317;BME280;41178;48.956;8.130;2023-02-26T09:22:43;99473.06;;;0.15;47.63
55317;BME280;41178;48.956;8.130;2023-02-26T09:27:45;99488.38;;;-0.45;49.76
55317;BME280;41178;48.956;8.130;2023-02-26T09:32:47;99539.00;;;-0.54;49.30
55317;BME280;41178;48.956;8.130;2023-02-26T09:37:49;99404.56;;;0.90;47.91
55317;BME280;41178;48.956;8.130;2023-02-26T09:43:04;99493.25;;;0.58;47.52
55317;BME280;41178;48.956;8.130;2023-02-26T09:48:11;99423.06;;;1.71;46.44
55317;BME280;41178;48.956;8.130;2023-02-26T09:53:38;99581.44;;;0.09;47.49
55317;BME280;41178;48.956;8.130;2023-02-26T09:58:43;99495.84;;;0.91;46.70
55317;BME280;41178;48.956;8.130;2023-02-26T10:04:10;99490.47;;;1.44;45.55
55317;BME280;41178;48.956;8.130;2023-02-26T10:09:38;99537.16;;;0.90;45.25
55317;BME280;41178;48.956;8.130;2023-02-26T10:15:13;99616.44;;;0.55;45.03
55317;BME280;41178;48.956;8.130;2023-02-26T10:20:22;99609.66;;;0.29;46.07
55317;BME280;41178;48.956;8.130;2023-02-26T10:30:57;99639.78;;;0.37;45.67
55317;BME280;41178;48.956;8.130;2023-02-26T10:36:20;99600.06;;;0.40;45.97
55317;BME280;41178;48.956;8.130;2023-02-26T10:41:27;99557.97;;;0.93;45.56
55317;BME280;41178;48.956;8.130;2023-02-26T10:46:50;99529.31;;;1.21;45.40
55317;BME280;41178;48.956;8.130;2023-02-26T10:51:55;99602.69;;;0.40;46.00
55317;BME280;41178;48.956;8.130;2023-02-26T10:56:57;99542.44;;;1.11;45.12
55317;BME280;41178;48.956;8.130;2023-02-26T11:06:54;99590.91;;;-0.45;47.76
55317;BME280;41178;48.956;8.130;2023-02-26T11:12:04;99574.50;;;-0.03;46.83
55317;BME280;41178;48.956;8.130;2023-02-26T11:17:13;99658.13;;;-0.54;47.50
55317;BME280;41178;48.956;8.130;2023-02-26T11:22:17;99571.81;;;0.30;46.31
55317;BME280;41178;48.956;8.130;2023-02-26T11:27:25;99578.19;;;0.28;46.35
55317;BME280;41178;48.956;8.130;2023-02-26T11:32:35;99678.75;;;-0.25;46.45
55317;BME280;41178;48.956;8.130;2023-02-26T11:37:39;99661.19;;;-0.25;46.47
55317;BME280;41178;48.956;8.130;2023-02-26T11:42:52;99542.22;;;0.82;45.40
55317;BME280;41178;48.956;8.130;2023-02-26T11:47:59;99685.44;;;-0.32;46.30
55317;BME280;41178;48.956;8.130;2023-02-26T11:53:09;99672.94;;;0.28;44.93
55317;BME280;41178;48.956;8.130;2023-02-26T11:58:27;99724.22;;;-0.47;46.83
55317;BME280;41178;48.956;8.130;2023-02-26T12:03:32;99586.31;;;0.80;45.38
55317;BME280;41178;48.956;8.130;2023-02-26T12:08:37;99650.22;;;0.04;46.18
55317;BME280;41178;48.956;8.130;2023-02-26T12:40:45;99720.75;;;-0.12;45.35
55317;BME280;41178;48.956;8.130;2023-02-26T12:46:04;99761.69;;;-0.32;46.97
55317;BME280;41178;48.956;8.130;2023-02-26T13:23:55;99548.63;;;1.73;44.33
55317;BME280;41178;48.956;8.130;2023-02-26T13:29:03;99652.88;;;1.14;44.24
55317;BME280;41178;48.956;8.130;2023-02-26T13:34:25;99793.13;;;0.05;44.37
55317;BME280;41178;48.956;8.130;2023-02-26T13:44:51;99675.72;;;0.81;43.90
55317;BME280;41178;48.956;8.130;2023-02-26T13:55:47;99662.06;;;1.20;42.67
55317;BME280;41178;48.956;8.130;2023-02-26T14:01:13;99608.66;;;1.60;42.59
55317;BME280;41178;48.956;8.130;2023-02-26T14:22:35;99842.38;;;0.38;41.58
55317;BME280;41178;48.956;8.130;2023-02-26T14:27:43;99688.88;;;1.25;41.47
55317;BME280;41178;48.956;8.130;2023-02-26T14:33:07;99762.81;;;0.80;41.78
55317;BME280;41178;48.956;8.130;2023-02-26T14:43:21;99805.06;;;0.67;41.50
55317;BME280;41178;48.956;8.130;2023-02-26T14:48:25;99734.16;;;1.30;41.42
55317;BME280;41178;48.956;8.130;2023-02-26T14:54:42;99812.25;;;0.87;41.38
55317;BME280;41178;48.956;8.130;2023-02-26T15:25:22;99720.19;;;1.83;40.49
55317;BME280;41178;48.956;8.130;2023-02-26T15:30:28;99878.00;;;0.89;40.32
55317;BME280;41178;48.956;8.130;2023-02-26T15:35:31;99842.66;;;1.03;40.63
55317;BME280;41178;48.956;8.130;2023-02-26T15:40:36;99899.84;;;0.44;41.94
55317;BME280;41178;48.956;8.130;2023-02-26T15:45:44;99901.22;;;0.61;41.65
55317;BME280;41178;48.956;8.130;2023-02-26T15:50:52;99854.06;;;1.03;41.07
55317;BME280;41178;48.956;8.130;2023-02-26T15:55:56;99820.59;;;1.27;40.31
55317;BME280;41178;48.956;8.130;2023-02-26T16:01:00;99820.00;;;1.12;40.03
55317;BME280;41178;48.956;8.130;2023-02-26T16:06:03;99807.28;;;1.28;40.45
55317;BME280;41178;48.956;8.130;2023-02-26T16:11:06;99844.47;;;1.02;40.94
55317;BME280;41178;48.956;8.130;2023-02-26T16:16:58;99984.06;;;0.33;41.10
55317;BME280;41178;48.956;8.130;2023-02-26T16:21:37;99906.72;;;0.69;40.99
55317;BME280;41178;48.956;8.130;2023-02-26T16:26:43;99852.50;;;1.12;40.86
55317;BME280;41178;48.956;8.130;2023-02-26T16:31:50;100069.50;;;-0.34;41.15
55317;BME280;41178;48.956;8.130;2023-02-26T16:36:53;100042.56;;;-0.25;40.43
55317;BME280;41178;48.956;8.130;2023-02-26T16:42:09;99957.91;;;0.43;39.79
55317;BME280;41178;48.956;8.130;2023-02-26T16:47:14;100043.81;;;-0.17;40.70
55317;BME280;41178;48.956;8.130;2023-02-26T16:52:20;100094.50;;;-0.67;40.11
55317;BME280;41178;48.956;8.130;2023-02-26T16:57:49;100048.97;;;-0.16;39.28
55317;BME280;41178;48.956;8.130;2023-02-26T17:02:51;99940.91;;;0.47;39.47
55317;BME280;41178;48.956;8.130;2023-02-26T17:08:08;99889.03;;;0.94;39.21
55317;BME280;41178;48.956;8.130;2023-02-26T17:13:17;100026.84;;;0.24;40.11
55317;BME280;41178;48.956;8.130;2023-02-26T17:18:19;100048.47;;;0.16;39.94
55317;BME280;41178;48.956;8.130;2023-02-26T17:23:22;99996.09;;;0.48;39.75
55317;BME280;41178;48.956;8.130;2023-02-26T17:28:30;100161.94;;;-0.53;39.68
55317;BME280;41178;48.956;8.130;2023-02-26T17:33:37;100052.66;;;0.19;39.22
55317;BME280;41178;48.956;8.130;2023-02-26T17:38:40;100076.91;;;0.11;39.99
55317;BME280;41178;48.956;8.130;2023-02-26T17:43:47;100011.56;;;0.53;39.49
55317;BME280;41178;48.956;8.130;2023-02-26T17:48:49;99965.47;;;1.05;39.21
55317;BME280;41178;48.956;8.130;2023-02-26T17:53:50;100064.34;;;0.52;39.74
55317;BME280;41178;48.956;8.130;2023-02-26T17:58:53;100117.63;;;0.18;40.25
55317;BME280;41178;48.956;8.130;2023-02-26T18:03:56;100080.38;;;0.36;40.16
55317;BME280;41178;48.956;8.130;2023-02-26T18:08:58;100105.91;;;0.22;39.76
55317;BME280;41178;48.956;8.130;2023-02-26T18:14:01;100015.09;;;0.76;39.56
55317;BME280;41178;48.956;8.130;2023-02-26T18:19:03;100097.91;;;0.24;39.88
55317;BME280;41178;48.956;8.130;2023-02-26T18:24:06;100181.34;;;-0.28;40.79
55317;BME280;41178;48.956;8.130;2023-02-26T18:29:08;100166.06;;;-0.10;40.44
55317;BME280;41178;48.956;8.130;2023-02-26T18:34:11;100133.25;;;-0.17;40.45
55317;BME280;41178;48.956;8.130;2023-02-26T18:39:14;100230.50;;;-0.83;40.46
55317;BME280;41178;48.956;8.130;2023-02-26T18:44:16;100103.22;;;-0.15;40.29
55317;BME280;41178;48.956;8.130;2023-02-26T18:49:19;100052.84;;;0.16;40.02
55317;BME280;41178;48.956;8.130;2023-02-26T18:54:21;100167.34;;;-0.69;40.58
55317;BME280;41178;48.956;8.130;2023-02-26T18:59:23;100126.84;;;-0.26;40.08
55317;BME280;41178;48.956;8.130;2023-02-26T19:04:25;100066.72;;;0.30;39.62
55317;BME280;41178;48.956;8.130;2023-02-26T19:09:27;100136.19;;;-0.35;40.42
55317;BME280;41178;48.956;8.130;2023-02-26T19:14:29;100122.50;;;-0.14;40.17
55317;BME280;41178;48.956;8.130;2023-02-26T19:19:30;100256.69;;;-0.96;40.58
55317;BME280;41178;48.956;8.130;2023-02-26T19:24:32;100209.50;;;-0.70;40.44
55317;BME280;41178;48.956;8.130;2023-02-26T19:29:34;100213.03;;;-0.84;40.49
55317;BME280;41178;48.956;8.130;2023-02-26T19:34:37;100198.13;;;-0.84;40.26
55317;BME280;41178;48.956;8.130;2023-02-26T19:39:38;100241.75;;;-1.23;40.38
55317;BME280;41178;48.956;8.130;2023-02-26T19:44:40;100237.06;;;-1.18;40.03
55317;BME280;41178;48.956;8.130;2023-02-26T19:49:42;100097.56;;;-0.47;39.74
55317;BME280;41178;48.956;8.130;2023-02-26T19:54:44;100191.34;;;-0.88;39.76
55317;BME280;41178;48.956;8.130;2023-02-26T19:59:45;100183.19;;;-0.83;39.60
55317;BME280;41178;48.956;8.130;2023-02-26T20:04:47;100153.22;;;-0.53;39.74
55317;BME280;41178;48.956;8.130;2023-02-26T20:09:49;100165.63;;;-0.83;39.48
55317;BME280;41178;48.956;8.130;2023-02-26T20:14:51;100219.94;;;-1.38;40.03
55317;BME280;41178;48.956;8.130;2023-02-26T20:19:52;100179.41;;;-1.06;39.80
55317;BME280;41178;48.956;8.130;2023-02-26T20:24:54;100222.44;;;-1.22;39.81
55317;BME280;41178;48.956;8.130;2023-02-26T20:29:57;100268.69;;;-1.62;40.73
55317;BME280;41178;48.956;8.130;2023-02-26T20:34:58;100188.53;;;-1.12;40.24
55317;BME280;41178;48.956;8.130;2023-02-26T20:40:00;100144.41;;;-0.80;40.06
55317;BME280;41178;48.956;8.130;2023-02-26T20:45:03;100185.41;;;-1.04;40.33
55317;BME280;41178;48.956;8.130;2023-02-26T20:50:06;100167.72;;;-0.88;40.08
55317;BME280;41178;48.956;8.130;2023-02-26T20:55:08;100273.75;;;-1.45;40.29
55317;BME280;41178;48.956;8.130;2023-02-26T21:00:11;100202.13;;;-1.05;40.53
55317;BME280;41178;48.956;8.130;2023-02-26T21:05:16;100227.13;;;-1.12;40.30
55317;BME280;41178;48.956;8.130;2023-02-26T21:10:19;100232.50;;;-1.43;41.24
55317;BME280;41178;48.956;8.130;2023-02-26T21:15:21;100280.03;;;-1.76;41.28
55317;BME280;41178;48.956;8.130;2023-02-26T21:20:23;100205.13;;;-1.39;40.85
55317;BME280;41178;48.956;8.130;2023-02-26T21:25:25;100174.78;;;-1.15;40.63
55317;BME280;41178;48.956;8.130;2023-02-26T21:30:27;100173.38;;;-1.21;41.10
55317;BME280;41178;48.956;8.130;2023-02-26T21:35:29;100186.00;;;-1.13;40.74
55317;BME280;41178;48.956;8.130;2023-02-26T21:40:32;100163.13;;;-1.11;41.39
55317;BME280;41178;48.956;8.130;2023-02-26T21:45:34;100225.56;;;-1.44;41.82
55317;BME280;41178;48.956;8.130;2023-02-26T21:50:36;100246.88;;;-1.63;42.21
55317;BME280;41178;48.956;8.130;2023-02-26T21:55:38;100334.91;;;-2.18;42.68
55317;BME280;41178;48.956;8.130;2023-02-26T22:00:40;100269.06;;;-1.83;42.54
55317;BME280;41178;48.956;8.130;2023-02-26T22:05:42;100233.53;;;-1.74;42.86
55317;BME280;41178;48.956;8.130;2023-02-26T22:10:44;100177.16;;;-1.40;42.78
55317;BME280;41178;48.956;8.130;2023-02-26T22:15:46;100167.88;;;-1.31;42.77
55317;BME280;41178;48.956;8.130;2023-02-26T22:20:48;100186.22;;;-1.72;43.43
55317;BME280;41178;48.956;8.130;2023-02-26T22:25:50;100097.44;;;-1.11;43.29
55317;BME280;41178;48.956;8.130;2023-02-26T22:30:51;100192.59;;;-1.77;43.63
55317;BME280;41178;48.956;8.130;2023-02-26T22:35:58;100248.13;;;-1.99;43.70
55317;BME280;41178;48.956;8.130;2023-02-26T22:41:00;100313.34;;;-2.53;44.69
55317;BME280;41178;48.956;8.130;2023-02-26T22:46:02;100194.28;;;-1.76;44.21
55317;BME280;41178;48.956;8.130;2023-02-26T22:51:04;100218.53;;;-2.01;44.26
55317;BME280;41178;48.956;8.130;2023-02-26T22:56:06;100281.00;;;-2.38;44.89
55317;BME280;41178;48.956;8.130;2023-02-26T23:01:08;100142.06;;;-1.66;44.60
55317;BME280;41178;48.956;8.130;2023-02-26T23:06:10;100064.03;;;-1.09;43.89
55317;BME280;41178;48.956;8.130;2023-02-26T23:11:12;100267.00;;;-2.53;45.55
55317;BME280;41178;48.956;8.130;2023-02-26T23:16:14;100082.88;;;-1.43;45.24
55317;BME280;41178;48.956;8.130;2023-02-26T23:21:16;100300.94;;;-2.65;45.13
55317;BME280;41178;48.956;8.130;2023-02-26T23:26:18;100179.28;;;-2.17;45.72
55317;BME280;41178;48.956;8.130;2023-02-26T23:31:20;100113.31;;;-1.82;45.48
55317;BME280;41178;48.956;8.130;2023-02-26T23:36:22;100190.03;;;-2.21;45.40
55317;BME280;41178;48.956;8.130;2023-02-26T23:41:23;100277.19;;;-2.78;46.40
55317;BME280;41178;48.956;8.130;2023-02-26T23:46:26;100083.81;;;-1.58;44.88
55317;BME280;41178;48.956;8.130;2023-02-26T23:51:27;100021.78;;;-1.32;45.65
55317;BME280;41178;48.956;8.130;2023-02-26T23:56:29;100054.09;;;-1.44;45.54
